sensor_id;sensor_type;location;lat;lon;timestamp;P1;durP1;ratioP1;P2;durP2;ratioP2
50012;SDS011;35901;48.694;9.476;2023-11-21T00:02:21;10.43;;;6.57;;
50012;SDS011;35901;48.694;9.476;2023-11-21T00:04:47;9.10;;;5.53;;
50012;SDS011;35901;48.694;9.476;2023-11-21T00:07:13;7.30;;;4.90;;
50012;SDS011;35901;48.694;9.476;2023-11-21T00:09:40;8.07;;;4.73;;
50012;SDS011;35901;48.694;9.476;2023-11-21T00:12:07;9.67;;;5.33;;
50012;SDS011;35901;48.694;9.476;2023-11-21T00:14:38;7.67;;;4.93;;
50012;SDS011;35901;48.694;9.476;2023-11-21T00:17:04;9.90;;;4.70;;
50012;SDS011;35901;48.694;9.476;2023-11-21T00:19:30;10.80;;;4.80;;
50012;SDS011;35901;48.694;9.476;2023-11-21T00:21:56;10.57;;;4.90;;
50012;SDS011;35901;48.694;9.476;2023-11-21T00:24:23;8.80;;;4.60;;
50012;SDS011;35901;48.694;9.476;2023-11-21T00:26:50;6.70;;;4.13;;
50012;SDS011;35901;48.694;9.476;2023-11-21T00:29:17;7.17;;;4.07;;
50012;SDS011;35901;48.694;9.476;2023-11-21T00:31:44;6.17;;;4.27;;
50012;SDS011;35901;48.694;9.476;2023-11-21T00:34:11;5.83;;;3.67;;
50012;SDS011;35901;48.694;9.476;2023-11-21T00:36:37;5.67;;;3.80;;
50012;SDS011;35901;48.694;9.476;2023-11-21T00:39:03;8.60;;;4.00;;
50012;SDS011;35901;48.694;9.476;2023-11-21T00:41:30;9.07;;;3.97;;
50012;SDS011;35901;48.694;9.476;2023-11-21T00:43:56;6.90;;;3.20;;
50012;SDS011;35901;48.694;9.476;2023-11-21T00:46:22;9.70;;;3.70;;
50012;SDS011;35901;48.694;9.476;2023-11-21T00:52:14;7.47;;;3.90;;
50012;SDS011;35901;48.694;9.476;2023-11-21T00:54:40;9.37;;;4.30;;
50012;SDS011;35901;48.694;9.476;2023-11-21T00:57:06;10.27;;;3.90;;
50012;SDS011;35901;48.694;9.476;2023-11-21T00:59:33;8.60;;;4.10;;
50012;SDS011;35901;48.694;9.476;2023-11-21T01:01:59;8.10;;;3.90;;
50012;SDS011;35901;48.694;9.476;2023-11-21T01:04:26;8.20;;;3.93;;
50012;SDS011;35901;48.694;9.476;2023-11-21T01:06:53;8.10;;;4.17;;
50012;SDS011;35901;48.694;9.476;2023-11-21T01:09:18;8.60;;;4.07;;
50012;SDS011;35901;48.694;9.476;2023-11-21T01:11:44;6.40;;;4.03;;
50012;SDS011;35901;48.694;9.476;2023-11-21T01:14:10;9.97;;;4.10;;
50012;SDS011;35901;48.694;9.476;2023-11-21T01:16:35;7.23;;;3.97;;
50012;SDS011;35901;48.694;9.476;2023-11-21T01:21:31;10.13;;;4.23;;
50012;SDS011;35901;48.694;9.476;2023-11-21T01:23:57;6.77;;;3.90;;
50012;SDS011;35901;48.694;9.476;2023-11-21T01:26:22;7.63;;;4.23;;
50012;SDS011;35901;48.694;9.476;2023-11-21T01:28:48;8.87;;;4.20;;
50012;SDS011;35901;48.694;9.476;2023-11-21T01:31:17;7.47;;;4.10;;
50012;SDS011;35901;48.694;9.476;2023-11-21T01:33:43;8.70;;;4.37;;
50012;SDS011;35901;48.694;9.476;2023-11-21T01:36:09;7.30;;;3.87;;
50012;SDS011;35901;48.694;9.476;2023-11-21T01:38:35;7.43;;;3.87;;
50012;SDS011;35901;48.694;9.476;2023-11-21T01:41:01;6.80;;;4.27;;
50012;SDS011;35901;48.694;9.476;2023-11-21T01:43:27;5.70;;;3.83;;
50012;SDS011;35901;48.694;9.476;2023-11-21T01:45:54;8.40;;;3.47;;
50012;SDS011;35901;48.694;9.476;2023-11-21T01:48:22;5.93;;;3.63;;
50012;SDS011;35901;48.694;9.476;2023-11-21T01:53:18;7.13;;;4.03;;
50012;SDS011;35901;48.694;9.476;2023-11-21T01:55:44;5.27;;;3.87;;
50012;SDS011;35901;48.694;9.476;2023-11-21T01:58:11;6.27;;;4.00;;
50012;SDS011;35901;48.694;9.476;2023-11-21T02:00:37;6.67;;;3.13;;
50012;SDS011;35901;48.694;9.476;2023-11-21T02:03:03;5.40;;;3.10;;
50012;SDS011;35901;48.694;9.476;2023-11-21T02:05:29;6.00;;;3.30;;
50012;SDS011;35901;48.694;9.476;2023-11-21T02:07:57;5.67;;;3.03;;
50012;SDS011;35901;48.694;9.476;2023-11-21T02:10:22;4.63;;;2.80;;
50012;SDS011;35901;48.694;9.476;2023-11-21T02:12:49;5.63;;;3.27;;
50012;SDS011;35901;48.694;9.476;2023-11-21T02:15:17;5.90;;;3.30;;
50012;SDS011;35901;48.694;9.476;2023-11-21T02:17:48;7.90;;;3.37;;
50012;SDS011;35901;48.694;9.476;2023-11-21T02:20:19;7.00;;;3.37;;
50012;SDS011;35901;48.694;9.476;2023-11-21T02:22:51;5.77;;;3.00;;
50012;SDS011;35901;48.694;9.476;2023-11-21T02:25:26;5.93;;;3.00;;
50012;SDS011;35901;48.694;9.476;2023-11-21T02:27:53;4.43;;;2.60;;
50012;SDS011;35901;48.694;9.476;2023-11-21T02:30:20;4.60;;;3.13;;
50012;SDS011;35901;48.694;9.476;2023-11-21T02:32:51;5.87;;;3.10;;
50012;SDS011;35901;48.694;9.476;2023-11-21T02:35:22;6.97;;;3.60;;
50012;SDS011;35901;48.694;9.476;2023-11-21T02:37:48;6.37;;;3.20;;
50012;SDS011;35901;48.694;9.476;2023-11-21T02:40:15;5.00;;;3.27;;
50012;SDS011;35901;48.694;9.476;2023-11-21T02:42:46;6.13;;;3.13;;
50012;SDS011;35901;48.694;9.476;2023-11-21T02:45:19;4.93;;;3.50;;
50012;SDS011;35901;48.694;9.476;2023-11-21T02:47:52;6.47;;;3.27;;
50012;SDS011;35901;48.694;9.476;2023-11-21T02:50:18;6.57;;;3.50;;
50012;SDS011;35901;48.694;9.476;2023-11-21T02:52:44;6.60;;;3.40;;
50012;SDS011;35901;48.694;9.476;2023-11-21T02:55:10;6.30;;;3.10;;
50012;SDS011;35901;48.694;9.476;2023-11-21T02:57:36;7.47;;;3.50;;
50012;SDS011;35901;48.694;9.476;2023-11-21T03:00:02;7.33;;;3.80;;
50012;SDS011;35901;48.694;9.476;2023-11-21T03:02:28;6.83;;;3.57;;
50012;SDS011;35901;48.694;9.476;2023-11-21T03:04:54;4.23;;;2.97;;
50012;SDS011;35901;48.694;9.476;2023-11-21T03:07:19;5.40;;;3.80;;
50012;SDS011;35901;48.694;9.476;2023-11-21T03:09:45;5.00;;;3.80;;
50012;SDS011;35901;48.694;9.476;2023-11-21T03:12:11;5.37;;;3.40;;
50012;SDS011;35901;48.694;9.476;2023-11-21T03:14:41;6.13;;;3.20;;
50012;SDS011;35901;48.694;9.476;2023-11-21T03:17:06;6.90;;;3.20;;
50012;SDS011;35901;48.694;9.476;2023-11-21T03:19:32;5.80;;;3.40;;
50012;SDS011;35901;48.694;9.476;2023-11-21T03:21:58;4.97;;;3.43;;
50012;SDS011;35901;48.694;9.476;2023-11-21T03:24:26;7.33;;;3.23;;
50012;SDS011;35901;48.694;9.476;2023-11-21T03:26:51;6.53;;;3.70;;
50012;SDS011;35901;48.694;9.476;2023-11-21T03:29:17;7.10;;;3.60;;
50012;SDS011;35901;48.694;9.476;2023-11-21T03:31:43;3.87;;;3.17;;
50012;SDS011;35901;48.694;9.476;2023-11-21T03:34:11;6.43;;;3.20;;
50012;SDS011;35901;48.694;9.476;2023-11-21T03:36:41;5.73;;;3.50;;
50012;SDS011;35901;48.694;9.476;2023-11-21T03:39:07;4.50;;;3.40;;
50012;SDS011;35901;48.694;9.476;2023-11-21T03:41:32;6.70;;;4.00;;
50012;SDS011;35901;48.694;9.476;2023-11-21T03:43:59;5.60;;;3.60;;
50012;SDS011;35901;48.694;9.476;2023-11-21T03:46:24;7.07;;;3.50;;
50012;SDS011;35901;48.694;9.476;2023-11-21T03:48:50;8.43;;;3.63;;
50012;SDS011;35901;48.694;9.476;2023-11-21T03:51:16;5.40;;;3.70;;
50012;SDS011;35901;48.694;9.476;2023-11-21T03:53:41;4.53;;;3.63;;
50012;SDS011;35901;48.694;9.476;2023-11-21T03:58:48;5.03;;;3.60;;
50012;SDS011;35901;48.694;9.476;2023-11-21T04:01:23;7.27;;;3.63;;
50012;SDS011;35901;48.694;9.476;2023-11-21T04:03:49;6.27;;;3.60;;
50012;SDS011;35901;48.694;9.476;2023-11-21T04:06:16;5.00;;;3.33;;
50012;SDS011;35901;48.694;9.476;2023-11-21T04:08:45;4.90;;;3.47;;
50012;SDS011;35901;48.694;9.476;2023-11-21T04:11:11;6.27;;;4.23;;
50012;SDS011;35901;48.694;9.476;2023-11-21T04:13:38;5.70;;;3.53;;
50012;SDS011;35901;48.694;9.476;2023-11-21T04:16:05;6.03;;;4.30;;
50012;SDS011;35901;48.694;9.476;2023-11-21T04:18:31;5.30;;;3.30;;
50012;SDS011;35901;48.694;9.476;2023-11-21T04:20:57;5.33;;;3.40;;
50012;SDS011;35901;48.694;9.476;2023-11-21T04:23:22;6.53;;;3.30;;
50012;SDS011;35901;48.694;9.476;2023-11-21T04:25:48;7.63;;;2.93;;
50012;SDS011;35901;48.694;9.476;2023-11-21T04:28:28;4.83;;;3.20;;
50012;SDS011;35901;48.694;9.476;2023-11-21T04:30:54;5.63;;;2.80;;
50012;SDS011;35901;48.694;9.476;2023-11-21T04:33:19;5.47;;;3.47;;
50012;SDS011;35901;48.694;9.476;2023-11-21T04:35:46;4.47;;;3.47;;
50012;SDS011;35901;48.694;9.476;2023-11-21T04:38:12;6.40;;;3.03;;
50012;SDS011;35901;48.694;9.476;2023-11-21T04:40:37;5.50;;;3.20;;
50012;SDS011;35901;48.694;9.476;2023-11-21T04:43:03;5.07;;;3.20;;
50012;SDS011;35901;48.694;9.476;2023-11-21T04:45:29;6.80;;;3.40;;
50012;SDS011;35901;48.694;9.476;2023-11-21T04:47:55;4.83;;;3.70;;
50012;SDS011;35901;48.694;9.476;2023-11-21T04:50:21;6.93;;;3.83;;
50012;SDS011;35901;48.694;9.476;2023-11-21T04:52:46;5.37;;;3.80;;
50012;SDS011;35901;48.694;9.476;2023-11-21T04:55:12;6.77;;;4.27;;
50012;SDS011;35901;48.694;9.476;2023-11-21T04:57:39;7.90;;;4.90;;
50012;SDS011;35901;48.694;9.476;2023-11-21T05:00:07;5.30;;;3.43;;
50012;SDS011;35901;48.694;9.476;2023-11-21T05:02:34;7.63;;;4.30;;
50012;SDS011;35901;48.694;9.476;2023-11-21T05:05:00;7.97;;;4.20;;
50012;SDS011;35901;48.694;9.476;2023-11-21T05:07:26;7.50;;;4.03;;
50012;SDS011;35901;48.694;9.476;2023-11-21T05:09:55;4.70;;;3.80;;
50012;SDS011;35901;48.694;9.476;2023-11-21T05:12:23;8.57;;;4.60;;
50012;SDS011;35901;48.694;9.476;2023-11-21T05:14:50;4.60;;;4.07;;
50012;SDS011;35901;48.694;9.476;2023-11-21T05:17:16;6.77;;;4.50;;
50012;SDS011;35901;48.694;9.476;2023-11-21T05:19:42;7.07;;;3.50;;
50012;SDS011;35901;48.694;9.476;2023-11-21T05:22:08;3.73;;;3.30;;
50012;SDS011;35901;48.694;9.476;2023-11-21T05:24:33;5.00;;;3.30;;
50012;SDS011;35901;48.694;9.476;2023-11-21T05:27:00;7.03;;;3.83;;
50012;SDS011;35901;48.694;9.476;2023-11-21T05:29:25;5.00;;;3.50;;
50012;SDS011;35901;48.694;9.476;2023-11-21T05:31:52;4.43;;;3.80;;
50012;SDS011;35901;48.694;9.476;2023-11-21T05:34:18;3.33;;;3.00;;
50012;SDS011;35901;48.694;9.476;2023-11-21T05:36:44;5.43;;;3.63;;
50012;SDS011;35901;48.694;9.476;2023-11-21T05:39:13;8.03;;;3.97;;
50012;SDS011;35901;48.694;9.476;2023-11-21T05:41:39;4.33;;;3.27;;
50012;SDS011;35901;48.694;9.476;2023-11-21T05:44:04;5.03;;;3.77;;
50012;SDS011;35901;48.694;9.476;2023-11-21T05:46:30;8.17;;;5.17;;
50012;SDS011;35901;48.694;9.476;2023-11-21T05:48:56;6.00;;;4.70;;
50012;SDS011;35901;48.694;9.476;2023-11-21T05:51:21;8.73;;;5.03;;
50012;SDS011;35901;48.694;9.476;2023-11-21T05:53:47;5.97;;;4.57;;
50012;SDS011;35901;48.694;9.476;2023-11-21T05:56:13;5.80;;;4.43;;
50012;SDS011;35901;48.694;9.476;2023-11-21T05:58:38;6.57;;;3.73;;
50012;SDS011;35901;48.694;9.476;2023-11-21T06:01:05;6.70;;;4.10;;
50012;SDS011;35901;48.694;9.476;2023-11-21T06:03:34;7.07;;;4.53;;
50012;SDS011;35901;48.694;9.476;2023-11-21T06:06:00;4.93;;;3.93;;
50012;SDS011;35901;48.694;9.476;2023-11-21T06:08:26;6.87;;;3.93;;
50012;SDS011;35901;48.694;9.476;2023-11-21T06:10:51;5.43;;;4.17;;
50012;SDS011;35901;48.694;9.476;2023-11-21T06:13:17;4.23;;;3.83;;
50012;SDS011;35901;48.694;9.476;2023-11-21T06:15:49;5.70;;;3.90;;
50012;SDS011;35901;48.694;9.476;2023-11-21T06:18:15;5.53;;;3.50;;
50012;SDS011;35901;48.694;9.476;2023-11-21T06:20:40;5.87;;;3.87;;
50012;SDS011;35901;48.694;9.476;2023-11-21T06:23:06;8.23;;;3.77;;
50012;SDS011;35901;48.694;9.476;2023-11-21T06:25:32;5.60;;;3.50;;
50012;SDS011;35901;48.694;9.476;2023-11-21T06:28:01;5.83;;;3.37;;
50012;SDS011;35901;48.694;9.476;2023-11-21T06:33:35;6.00;;;3.53;;
50012;SDS011;35901;48.694;9.476;2023-11-21T06:36:01;4.00;;;3.13;;
50012;SDS011;35901;48.694;9.476;2023-11-21T06:38:31;3.77;;;3.13;;
50012;SDS011;35901;48.694;9.476;2023-11-21T06:40:57;3.50;;;3.07;;
50012;SDS011;35901;48.694;9.476;2023-11-21T06:43:23;4.60;;;2.50;;
50012;SDS011;35901;48.694;9.476;2023-11-21T06:45:49;3.77;;;2.37;;
50012;SDS011;35901;48.694;9.476;2023-11-21T06:48:15;2.40;;;2.20;;
50012;SDS011;35901;48.694;9.476;2023-11-21T06:50:40;4.07;;;2.80;;
50012;SDS011;35901;48.694;9.476;2023-11-21T06:53:06;3.83;;;2.70;;
50012;SDS011;35901;48.694;9.476;2023-11-21T06:55:33;3.73;;;3.03;;
50012;SDS011;35901;48.694;9.476;2023-11-21T06:57:59;4.00;;;3.20;;
50012;SDS011;35901;48.694;9.476;2023-11-21T07:00:25;3.57;;;3.10;;
50012;SDS011;35901;48.694;9.476;2023-11-21T07:02:54;3.00;;;2.73;;
50012;SDS011;35901;48.694;9.476;2023-11-21T07:05:20;2.87;;;2.67;;
50012;SDS011;35901;48.694;9.476;2023-11-21T07:07:47;2.50;;;2.30;;
50012;SDS011;35901;48.694;9.476;2023-11-21T07:10:13;2.37;;;2.17;;
50012;SDS011;35901;48.694;9.476;2023-11-21T07:12:39;3.93;;;2.47;;
50012;SDS011;35901;48.694;9.476;2023-11-21T07:15:05;5.30;;;2.50;;
50012;SDS011;35901;48.694;9.476;2023-11-21T07:17:34;2.40;;;2.20;;
50012;SDS011;35901;48.694;9.476;2023-11-21T07:20:01;2.87;;;2.10;;
50012;SDS011;35901;48.694;9.476;2023-11-21T07:22:27;2.97;;;2.23;;
50012;SDS011;35901;48.694;9.476;2023-11-21T07:24:52;3.07;;;2.07;;
50012;SDS011;35901;48.694;9.476;2023-11-21T07:27:18;3.30;;;2.20;;
50012;SDS011;35901;48.694;9.476;2023-11-21T07:29:44;2.87;;;2.13;;
50012;SDS011;35901;48.694;9.476;2023-11-21T07:34:41;2.60;;;2.03;;
50012;SDS011;35901;48.694;9.476;2023-11-21T07:37:07;2.80;;;1.90;;
50012;SDS011;35901;48.694;9.476;2023-11-21T07:39:34;3.23;;;2.10;;
50012;SDS011;35901;48.694;9.476;2023-11-21T07:42:01;3.20;;;1.90;;
50012;SDS011;35901;48.694;9.476;2023-11-21T07:44:27;1.93;;;1.83;;
50012;SDS011;35901;48.694;9.476;2023-11-21T07:46:54;4.10;;;2.10;;
50012;SDS011;35901;48.694;9.476;2023-11-21T07:49:22;2.10;;;1.97;;
50012;SDS011;35901;48.694;9.476;2023-11-21T07:51:48;3.20;;;2.10;;
50012;SDS011;35901;48.694;9.476;2023-11-21T07:54:14;1.90;;;1.70;;
50012;SDS011;35901;48.694;9.476;2023-11-21T07:56:41;2.47;;;1.80;;
50012;SDS011;35901;48.694;9.476;2023-11-21T07:59:07;2.60;;;1.93;;
50012;SDS011;35901;48.694;9.476;2023-11-21T08:01:33;2.37;;;2.17;;
50012;SDS011;35901;48.694;9.476;2023-11-21T08:03:58;5.93;;;2.87;;
50012;SDS011;35901;48.694;9.476;2023-11-21T08:06:28;3.40;;;3.10;;
50012;SDS011;35901;48.694;9.476;2023-11-21T08:08:55;5.70;;;4.07;;
50012;SDS011;35901;48.694;9.476;2023-11-21T08:11:21;3.63;;;3.33;;
50012;SDS011;35901;48.694;9.476;2023-11-21T08:13:47;5.33;;;3.10;;
50012;SDS011;35901;48.694;9.476;2023-11-21T08:16:13;4.17;;;3.77;;
50012;SDS011;35901;48.694;9.476;2023-11-21T08:18:38;6.50;;;4.20;;
50012;SDS011;35901;48.694;9.476;2023-11-21T08:21:05;4.33;;;3.43;;
50012;SDS011;35901;48.694;9.476;2023-11-21T08:23:31;6.10;;;4.17;;
50012;SDS011;35901;48.694;9.476;2023-11-21T08:25:57;4.83;;;3.53;;
50012;SDS011;35901;48.694;9.476;2023-11-21T08:28:22;4.90;;;3.40;;
50012;SDS011;35901;48.694;9.476;2023-11-21T08:30:50;5.13;;;4.10;;
50012;SDS011;35901;48.694;9.476;2023-11-21T08:33:17;7.53;;;5.13;;
50012;SDS011;35901;48.694;9.476;2023-11-21T08:35:43;5.73;;;4.83;;
50012;SDS011;35901;48.694;9.476;2023-11-21T08:38:09;5.93;;;4.63;;
50012;SDS011;35901;48.694;9.476;2023-11-21T08:40:35;5.47;;;3.97;;
50012;SDS011;35901;48.694;9.476;2023-11-21T08:43:01;3.93;;;3.47;;
50012;SDS011;35901;48.694;9.476;2023-11-21T08:45:29;5.87;;;3.70;;
50012;SDS011;35901;48.694;9.476;2023-11-21T08:47:55;4.17;;;3.27;;
50012;SDS011;35901;48.694;9.476;2023-11-21T08:50:21;3.37;;;3.07;;
50012;SDS011;35901;48.694;9.476;2023-11-21T08:52:47;4.27;;;2.60;;
50012;SDS011;35901;48.694;9.476;2023-11-21T08:55:13;3.50;;;2.60;;
50012;SDS011;35901;48.694;9.476;2023-11-21T08:57:39;3.27;;;2.20;;
50012;SDS011;35901;48.694;9.476;2023-11-21T09:00:06;2.40;;;2.20;;
50012;SDS011;35901;48.694;9.476;2023-11-21T09:02:36;2.37;;;2.13;;
50012;SDS011;35901;48.694;9.476;2023-11-21T09:05:07;3.93;;;3.60;;
50012;SDS011;35901;48.694;9.476;2023-11-21T09:07:34;2.03;;;1.87;;
50012;SDS011;35901;48.694;9.476;2023-11-21T09:10:00;2.23;;;1.80;;
50012;SDS011;35901;48.694;9.476;2023-11-21T09:12:27;2.00;;;1.80;;
50012;SDS011;35901;48.694;9.476;2023-11-21T09:14:52;2.63;;;1.70;;
50012;SDS011;35901;48.694;9.476;2023-11-21T09:17:18;2.33;;;1.87;;
50012;SDS011;35901;48.694;9.476;2023-11-21T09:19:45;2.17;;;1.80;;
50012;SDS011;35901;48.694;9.476;2023-11-21T09:22:14;2.93;;;2.10;;
50012;SDS011;35901;48.694;9.476;2023-11-21T09:24:41;2.40;;;1.60;;
50012;SDS011;35901;48.694;9.476;2023-11-21T09:27:07;2.00;;;1.50;;
50012;SDS011;35901;48.694;9.476;2023-11-21T09:29:34;1.57;;;1.47;;
50012;SDS011;35901;48.694;9.476;2023-11-21T09:32:00;1.53;;;1.43;;
50012;SDS011;35901;48.694;9.476;2023-11-21T09:34:26;1.10;;;1.10;;
50012;SDS011;35901;48.694;9.476;2023-11-21T09:36:52;1.00;;;1.00;;
50012;SDS011;35901;48.694;9.476;2023-11-21T09:39:19;1.53;;;1.00;;
50012;SDS011;35901;48.694;9.476;2023-11-21T09:41:51;1.20;;;1.00;;
50012;SDS011;35901;48.694;9.476;2023-11-21T09:44:22;1.30;;;1.20;;
50012;SDS011;35901;48.694;9.476;2023-11-21T09:47:09;1.03;;;0.97;;
50012;SDS011;35901;48.694;9.476;2023-11-21T09:49:39;1.77;;;0.90;;
50012;SDS011;35901;48.694;9.476;2023-11-21T09:52:05;1.67;;;1.10;;
50012;SDS011;35901;48.694;9.476;2023-11-21T09:54:34;0.97;;;0.97;;
50012;SDS011;35901;48.694;9.476;2023-11-21T09:57:00;1.30;;;1.23;;
50012;SDS011;35901;48.694;9.476;2023-11-21T09:59:30;1.40;;;1.30;;
50012;SDS011;35901;48.694;9.476;2023-11-21T10:01:59;1.30;;;1.20;;
50012;SDS011;35901;48.694;9.476;2023-11-21T10:07:49;1.47;;;1.33;;
50012;SDS011;35901;48.694;9.476;2023-11-21T10:10:16;1.47;;;1.30;;
50012;SDS011;35901;48.694;9.476;2023-11-21T10:12:46;1.30;;;1.20;;
50012;SDS011;35901;48.694;9.476;2023-11-21T10:15:14;1.33;;;1.23;;
50012;SDS011;35901;48.694;9.476;2023-11-21T10:17:41;1.17;;;1.17;;
50012;SDS011;35901;48.694;9.476;2023-11-21T10:20:13;1.47;;;1.30;;
50012;SDS011;35901;48.694;9.476;2023-11-21T10:22:39;1.43;;;1.37;;
50012;SDS011;35901;48.694;9.476;2023-11-21T10:25:09;1.83;;;1.60;;
50012;SDS011;35901;48.694;9.476;2023-11-21T10:27:36;3.67;;;3.37;;
50012;SDS011;35901;48.694;9.476;2023-11-21T10:30:04;2.03;;;1.77;;
50012;SDS011;35901;48.694;9.476;2023-11-21T10:32:30;3.47;;;1.90;;
50012;SDS011;35901;48.694;9.476;2023-11-21T10:38:51;3.53;;;2.67;;
50012;SDS011;35901;48.694;9.476;2023-11-21T10:41:18;2.00;;;1.90;;
50012;SDS011;35901;48.694;9.476;2023-11-21T10:43:44;2.10;;;1.90;;
50012;SDS011;35901;48.694;9.476;2023-11-21T10:46:09;1.60;;;1.50;;
50012;SDS011;35901;48.694;9.476;2023-11-21T10:48:35;1.60;;;1.50;;
50012;SDS011;35901;48.694;9.476;2023-11-21T10:51:06;2.47;;;1.30;;
50012;SDS011;35901;48.694;9.476;2023-11-21T10:53:32;2.73;;;1.37;;
50012;SDS011;35901;48.694;9.476;2023-11-21T10:56:02;1.17;;;1.17;;
50012;SDS011;35901;48.694;9.476;2023-11-21T10:58:35;1.50;;;1.40;;
50012;SDS011;35901;48.694;9.476;2023-11-21T11:01:01;1.80;;;1.43;;
50012;SDS011;35901;48.694;9.476;2023-11-21T11:03:31;1.77;;;1.40;;
50012;SDS011;35901;48.694;9.476;2023-11-21T11:06:05;1.50;;;1.40;;
50012;SDS011;35901;48.694;9.476;2023-11-21T11:08:36;2.23;;;1.80;;
50012;SDS011;35901;48.694;9.476;2023-11-21T11:11:04;1.60;;;1.50;;
50012;SDS011;35901;48.694;9.476;2023-11-21T11:13:30;1.37;;;1.37;;
50012;SDS011;35901;48.694;9.476;2023-11-21T11:16:00;3.40;;;1.90;;
50012;SDS011;35901;48.694;9.476;2023-11-21T11:18:32;1.80;;;1.70;;
50012;SDS011;35901;48.694;9.476;2023-11-21T11:21:09;1.70;;;1.60;;
50012;SDS011;35901;48.694;9.476;2023-11-21T11:24:02;2.37;;;1.60;;
50012;SDS011;35901;48.694;9.476;2023-11-21T11:32:36;1.93;;;1.73;;
50012;SDS011;35901;48.694;9.476;2023-11-21T11:42:37;1.33;;;1.30;;
50012;SDS011;35901;48.694;9.476;2023-11-21T11:45:17;2.37;;;1.57;;
50012;SDS011;35901;48.694;9.476;2023-11-21T11:47:44;1.43;;;1.33;;
50012;SDS011;35901;48.694;9.476;2023-11-21T11:50:13;1.63;;;1.50;;
50012;SDS011;35901;48.694;9.476;2023-11-21T11:52:42;1.60;;;1.50;;
50012;SDS011;35901;48.694;9.476;2023-11-21T11:55:14;1.43;;;1.33;;
50012;SDS011;35901;48.694;9.476;2023-11-21T11:57:43;2.10;;;1.30;;
50012;SDS011;35901;48.694;9.476;2023-11-21T12:00:34;1.60;;;1.50;;
50012;SDS011;35901;48.694;9.476;2023-11-21T12:03:03;1.50;;;1.40;;
50012;SDS011;35901;48.694;9.476;2023-11-21T12:05:33;1.70;;;1.60;;
50012;SDS011;35901;48.694;9.476;2023-11-21T12:10:56;1.93;;;1.50;;
50012;SDS011;35901;48.694;9.476;2023-11-21T12:13:22;1.57;;;1.40;;
50012;SDS011;35901;48.694;9.476;2023-11-21T12:15:48;2.13;;;1.93;;
50012;SDS011;35901;48.694;9.476;2023-11-21T12:18:14;1.13;;;1.10;;
50012;SDS011;35901;48.694;9.476;2023-11-21T12:20:40;1.43;;;1.33;;
50012;SDS011;35901;48.694;9.476;2023-11-21T12:23:07;2.63;;;1.67;;
50012;SDS011;35901;48.694;9.476;2023-11-21T12:25:34;2.03;;;1.43;;
50012;SDS011;35901;48.694;9.476;2023-11-21T12:28:01;1.80;;;1.70;;
50012;SDS011;35901;48.694;9.476;2023-11-21T12:30:28;2.83;;;1.73;;
50012;SDS011;35901;48.694;9.476;2023-11-21T12:32:56;1.40;;;1.30;;
50012;SDS011;35901;48.694;9.476;2023-11-21T12:35:24;1.40;;;1.30;;
50012;SDS011;35901;48.694;9.476;2023-11-21T12:41:38;1.50;;;1.40;;
50012;SDS011;35901;48.694;9.476;2023-11-21T12:44:09;1.63;;;1.53;;
50012;SDS011;35901;48.694;9.476;2023-11-21T12:46:40;1.50;;;1.40;;
50012;SDS011;35901;48.694;9.476;2023-11-21T12:49:07;1.93;;;1.83;;
50012;SDS011;35901;48.694;9.476;2023-11-21T12:51:32;1.70;;;1.60;;
50012;SDS011;35901;48.694;9.476;2023-11-21T12:53:59;1.60;;;1.50;;
50012;SDS011;35901;48.694;9.476;2023-11-21T12:56:24;2.27;;;1.70;;
50012;SDS011;35901;48.694;9.476;2023-11-21T12:58:50;2.13;;;1.90;;
50012;SDS011;35901;48.694;9.476;2023-11-21T13:01:19;2.20;;;2.10;;
50012;SDS011;35901;48.694;9.476;2023-11-21T13:03:47;1.80;;;1.70;;
50012;SDS011;35901;48.694;9.476;2023-11-21T13:06:16;2.57;;;2.27;;
50012;SDS011;35901;48.694;9.476;2023-11-21T13:11:46;3.37;;;3.07;;
50012;SDS011;35901;48.694;9.476;2023-11-21T13:14:12;2.23;;;2.03;;
50012;SDS011;35901;48.694;9.476;2023-11-21T13:16:37;2.70;;;2.50;;
50012;SDS011;35901;48.694;9.476;2023-11-21T13:19:04;2.27;;;2.07;;
50012;SDS011;35901;48.694;9.476;2023-11-21T13:21:30;2.03;;;1.87;;
50012;SDS011;35901;48.694;9.476;2023-11-21T13:23:55;1.67;;;1.57;;
50012;SDS011;35901;48.694;9.476;2023-11-21T13:26:21;2.60;;;2.30;;
50012;SDS011;35901;48.694;9.476;2023-11-21T13:28:49;5.23;;;2.00;;
50012;SDS011;35901;48.694;9.476;2023-11-21T13:31:15;2.70;;;2.13;;
50012;SDS011;35901;48.694;9.476;2023-11-21T13:33:51;1.80;;;1.70;;
50012;SDS011;35901;48.694;9.476;2023-11-21T13:36:21;2.27;;;2.00;;
50012;SDS011;35901;48.694;9.476;2023-11-21T13:39:02;3.10;;;2.80;;
50012;SDS011;35901;48.694;9.476;2023-11-21T13:41:33;1.93;;;1.83;;
50012;SDS011;35901;48.694;9.476;2023-11-21T13:43:59;1.70;;;1.60;;
50012;SDS011;35901;48.694;9.476;2023-11-21T13:46:39;2.23;;;2.10;;
50012;SDS011;35901;48.694;9.476;2023-11-21T13:49:05;2.53;;;2.00;;
50012;SDS011;35901;48.694;9.476;2023-11-21T13:51:35;2.10;;;1.90;;
50012;SDS011;35901;48.694;9.476;2023-11-21T13:54:09;2.03;;;1.80;;
50012;SDS011;35901;48.694;9.476;2023-11-21T13:56:36;1.63;;;1.53;;
50012;SDS011;35901;48.694;9.476;2023-11-21T13:59:02;1.83;;;1.73;;
50012;SDS011;35901;48.694;9.476;2023-11-21T14:01:50;1.90;;;1.80;;
50012;SDS011;35901;48.694;9.476;2023-11-21T14:04:37;1.87;;;1.60;;
50012;SDS011;35901;48.694;9.476;2023-11-21T14:10:02;4.43;;;1.90;;
50012;SDS011;35901;48.694;9.476;2023-11-21T14:12:28;2.40;;;2.20;;
50012;SDS011;35901;48.694;9.476;2023-11-21T14:14:59;3.33;;;2.07;;
50012;SDS011;35901;48.694;9.476;2023-11-21T14:17:25;1.73;;;1.63;;
50012;SDS011;35901;48.694;9.476;2023-11-21T14:19:52;1.90;;;1.80;;
50012;SDS011;35901;48.694;9.476;2023-11-21T14:22:20;3.10;;;2.10;;
50012;SDS011;35901;48.694;9.476;2023-11-21T14:24:46;2.13;;;1.93;;
50012;SDS011;35901;48.694;9.476;2023-11-21T14:27:12;1.90;;;1.70;;
50012;SDS011;35901;48.694;9.476;2023-11-21T14:29:39;1.67;;;1.57;;
50012;SDS011;35901;48.694;9.476;2023-11-21T14:32:08;4.00;;;1.67;;
50012;SDS011;35901;48.694;9.476;2023-11-21T14:34:34;1.60;;;1.50;;
50012;SDS011;35901;48.694;9.476;2023-11-21T14:37:00;1.60;;;1.50;;
50012;SDS011;35901;48.694;9.476;2023-11-21T14:39:28;1.10;;;1.10;;
50012;SDS011;35901;48.694;9.476;2023-11-21T14:41:54;1.20;;;1.20;;
50012;SDS011;35901;48.694;9.476;2023-11-21T14:44:24;1.17;;;1.17;;
50012;SDS011;35901;48.694;9.476;2023-11-21T14:46:54;1.20;;;1.20;;
50012;SDS011;35901;48.694;9.476;2023-11-21T14:49:21;1.10;;;1.10;;
50012;SDS011;35901;48.694;9.476;2023-11-21T14:51:54;1.00;;;1.00;;
50012;SDS011;35901;48.694;9.476;2023-11-21T14:54:26;1.30;;;1.20;;
50012;SDS011;35901;48.694;9.476;2023-11-21T14:57:11;1.10;;;1.10;;
50012;SDS011;35901;48.694;9.476;2023-11-21T14:59:48;1.00;;;1.00;;
50012;SDS011;35901;48.694;9.476;2023-11-21T15:02:17;1.10;;;1.10;;
50012;SDS011;35901;48.694;9.476;2023-11-21T15:04:47;2.03;;;1.23;;
50012;SDS011;35901;48.694;9.476;2023-11-21T15:07:17;1.10;;;1.10;;
50012;SDS011;35901;48.694;9.476;2023-11-21T15:09:56;1.37;;;1.20;;
50012;SDS011;35901;48.694;9.476;2023-11-21T15:12:21;1.40;;;1.30;;
50012;SDS011;35901;48.694;9.476;2023-11-21T15:14:51;3.10;;;1.60;;
50012;SDS011;35901;48.694;9.476;2023-11-21T15:17:19;1.97;;;1.87;;
50012;SDS011;35901;48.694;9.476;2023-11-21T15:19:49;4.20;;;3.77;;
50012;SDS011;35901;48.694;9.476;2023-11-21T15:22:15;5.47;;;4.97;;
50012;SDS011;35901;48.694;9.476;2023-11-21T15:24:41;3.97;;;3.27;;
50012;SDS011;35901;48.694;9.476;2023-11-21T15:27:10;3.13;;;2.87;;
50012;SDS011;35901;48.694;9.476;2023-11-21T15:29:36;3.63;;;3.33;;
50012;SDS011;35901;48.694;9.476;2023-11-21T15:32:05;2.83;;;2.57;;
50012;SDS011;35901;48.694;9.476;2023-11-21T15:34:32;2.60;;;2.40;;
50012;SDS011;35901;48.694;9.476;2023-11-21T15:36:58;1.90;;;1.73;;
50012;SDS011;35901;48.694;9.476;2023-11-21T15:39:24;2.30;;;2.10;;
50012;SDS011;35901;48.694;9.476;2023-11-21T15:41:57;2.10;;;2.00;;